Time;durP1;ratioP1;P1;durP2;ratioP2;P2;SDS_P1;SDS_P2;PMS_P1;PMS_P2;Temp;Humidity;BMP_temperature;BMP_pressure;BME280_temperature;BME280_humidity;BME280_pressure;Samples;Min_cycle;Max_cycle;Signal;HPM_P1;HPM_P2
2023/12/29 00:01:38;;;;;;;18.60;2.88;;;8.90;99.90;;;;;;5017985;28;20034;-89
2023/12/29 00:04:03;;;;;;;24.75;4.50;;;8.90;99.90;;;;;;5017829;28;20024;-89
2023/12/29 00:06:29;;;;;;;21.60;3.25;;;8.80;99.90;;;;;;5020727;28;20026;-92
2023/12/29 00:08:55;;;;;;;22.92;3.53;;;8.80;99.90;;;;;;5022898;28;20120;-90
2023/12/29 00:11:21;;;;;;;24.23;3.47;;;8.80;99.90;;;;;;5023223;28;20028;-89
2023/12/29 00:13:47;;;;;;;14.52;2.95;;;8.80;99.90;;;;;;5019529;28;20060;-90
2023/12/29 00:16:13;;;;;;;21.92;3.00;;;8.90;99.90;;;;;;5016227;28;20029;-91
2023/12/29 00:18:38;;;;;;;21.65;3.42;;;8.80;99.90;;;;;;5011844;28;20040;-89
2023/12/29 00:21:05;;;;;;;22.10;3.00;;;8.80;99.90;;;;;;5012397;28;20022;-90
2023/12/29 00:23:30;;;;;;;15.98;2.35;;;8.80;99.90;;;;;;5015265;28;20032;-89
2023/12/29 00:25:56;;;;;;;13.20;2.13;;;8.80;99.90;;;;;;5020632;28;20021;-90
2023/12/29 00:28:22;;;;;;;15.68;2.83;;;8.80;99.90;;;;;;5017434;28;20037;-90
2023/12/29 00:30:48;;;;;;;13.20;2.20;;;8.80;99.90;;;;;;5017472;28;20037;-90
2023/12/29 00:33:31;;;;;;;13.90;2.30;;;8.80;99.90;;;;;;5016255;28;20032;-90
2023/12/29 00:35:57;;;;;;;12.48;1.73;;;8.80;99.90;;;;;;5016209;28;20398;-89
2023/12/29 00:38:23;;;;;;;15.80;3.63;;;8.80;99.90;;;;;;5026756;28;20356;-89
2023/12/29 00:40:49;;;;;;;20.45;3.63;;;8.90;99.90;;;;;;5014208;28;20734;-90
2023/12/29 00:43:14;;;;;;;18.92;2.25;;;8.80;99.90;;;;;;5013666;28;20477;-88
2023/12/29 00:45:40;;;;;;;11.93;1.75;;;8.80;99.90;;;;;;5017389;28;20497;-89
2023/12/29 00:48:06;;;;;;;19.60;2.97;;;8.70;99.90;;;;;;5014472;28;20175;-90
2023/12/29 00:50:32;;;;;;;16.38;2.60;;;8.70;99.90;;;;;;5013501;28;20138;-89
2023/12/29 00:52:57;;;;;;;12.40;2.80;;;8.70;99.90;;;;;;5014288;28;20037;-89
2023/12/29 00:55:26;;;;;;;11.65;1.75;;;8.70;99.90;;;;;;5016205;28;20017;-89
2023/12/29 00:57:51;;;;;;;11.50;2.10;;;8.70;99.90;;;;;;5021592;28;20034;-88
2023/12/29 01:00:17;;;;;;;21.33;3.45;;;8.70;99.90;;;;;;5016164;28;20029;-91
2023/12/29 01:02:43;;;;;;;16.70;2.83;;;8.70;99.90;;;;;;5018211;28;20456;-89
2023/12/29 01:05:09;;;;;;;26.98;2.92;;;8.80;99.90;;;;;;5022879;28;20030;-90
2023/12/29 01:07:34;;;;;;;17.00;2.20;;;8.80;99.90;;;;;;5022879;28;20087;-89
2023/12/29 01:10:00;;;;;;;19.60;3.22;;;8.90;99.90;;;;;;5014000;28;20489;-90
2023/12/29 01:12:26;;;;;;;16.80;2.78;;;8.90;99.90;;;;;;5011259;28;20323;-89
2023/12/29 01:14:52;;;;;;;19.67;2.95;;;8.80;99.90;;;;;;5014179;28;20037;-90
2023/12/29 01:17:17;;;;;;;26.73;4.60;;;8.90;99.90;;;;;;5020607;28;20075;-89
2023/12/29 01:19:43;;;;;;;18.48;3.08;;;8.90;99.90;;;;;;5019576;28;21113;-89
2023/12/29 01:22:09;;;;;;;19.02;3.22;;;8.90;99.90;;;;;;5016378;28;20029;-90
2023/12/29 01:24:34;;;;;;;22.63;2.72;;;8.90;99.90;;;;;;5012519;28;20038;-90
2023/12/29 01:27:00;;;;;;;19.85;3.30;;;8.90;99.90;;;;;;5013957;28;20041;-89
2023/12/29 01:29:25;;;;;;;17.13;4.38;;;9.00;99.90;;;;;;5022805;28;20044;-89
2023/12/29 01:31:51;;;;;;;25.27;3.25;;;8.90;99.90;;;;;;5025476;28;20116;-90
2023/12/29 01:34:17;;;;;;;19.45;3.25;;;9.00;99.90;;;;;;5016970;28;20021;-90
2023/12/29 01:36:42;;;;;;;22.40;3.50;;;9.10;99.90;;;;;;5018609;28;20053;-87
2023/12/29 01:39:08;;;;;;;25.17;2.88;;;9.20;99.90;;;;;;5020344;28;20203;-87
2023/12/29 01:41:34;;;;;;;21.20;3.20;;;9.20;99.90;;;;;;5017167;28;20021;-89
2023/12/29 01:43:59;;;;;;;23.55;4.10;;;9.20;99.90;;;;;;5022158;28;20505;-90
2023/12/29 01:46:29;;;;;;;25.65;4.47;;;9.20;99.90;;;;;;5019210;28;20063;-90
2023/12/29 01:48:55;;;;;;;23.33;2.95;;;9.20;99.90;;;;;;5014058;28;20464;-88
2023/12/29 01:51:25;;;;;;;17.15;3.55;;;9.20;99.90;;;;;;5016809;28;20037;-89
2023/12/29 01:53:54;;;;;;;14.25;2.50;;;9.20;99.90;;;;;;5019579;28;20068;-89
2023/12/29 01:56:20;;;;;;;23.83;3.83;;;9.20;99.90;;;;;;5025880;28;20037;-89
2023/12/29 01:58:48;;;;;;;18.90;2.65;;;9.20;99.90;;;;;;5018796;28;20477;-88
2023/12/29 02:01:17;;;;;;;18.80;2.83;;;9.20;99.90;;;;;;5015697;28;20393;-89
2023/12/29 02:03:45;;;;;;;23.60;3.03;;;9.30;99.90;;;;;;5013218;28;20029;-89
2023/12/29 02:06:12;;;;;;;28.40;3.55;;;9.30;99.90;;;;;;5017538;28;20030;-88
2023/12/29 02:08:37;;;;;;;22.83;3.30;;;9.30;99.90;;;;;;5016717;28;20064;-89
2023/12/29 02:11:04;;;;;;;26.25;3.90;;;9.30;99.90;;;;;;5015127;28;20549;-89
2023/12/29 02:13:30;;;;;;;26.50;3.97;;;9.30;99.90;;;;;;5015129;28;20061;-89
2023/12/29 02:16:05;;;;;;;21.85;3.08;;;9.30;99.90;;;;;;5016873;28;20071;-89
2023/12/29 02:18:34;;;;;;;30.75;3.75;;;9.30;99.90;;;;;;5015663;28;20065;-89
2023/12/29 02:21:02;;;;;;;17.77;3.60;;;9.30;99.90;;;;;;5014957;28;20030;-88
2023/12/29 02:23:28;;;;;;;25.23;2.85;;;9.30;99.90;;;;;;5014623;28;20030;-90
2023/12/29 02:26:01;;;;;;;20.50;3.17;;;9.30;99.90;;;;;;5012509;28;20098;-90
2023/12/29 02:28:27;;;;;;;25.70;3.40;;;9.40;99.90;;;;;;5019274;28;20037;-88
2023/12/29 02:31:14;;;;;;;17.75;2.42;;;9.40;99.90;;;;;;5018148;28;20040;-90
2023/12/29 02:33:42;;;;;;;22.23;3.45;;;9.40;99.90;;;;;;5016081;28;20029;-89
2023/12/29 02:36:08;;;;;;;16.73;3.05;;;9.50;99.90;;;;;;5011884;28;20041;-89
2023/12/29 02:38:34;;;;;;;19.10;2.50;;;9.60;99.90;;;;;;5013503;28;20117;-89
2023/12/29 02:41:00;;;;;;;24.25;2.97;;;9.60;99.90;;;;;;5013582;28;20116;-88
2023/12/29 02:43:25;;;;;;;16.48;1.98;;;9.60;99.90;;;;;;5016185;28;20144;-90
2023/12/29 02:45:51;;;;;;;22.38;3.47;;;9.60;99.90;;;;;;5019277;28;20444;-88
2023/12/29 02:48:17;;;;;;;22.95;2.70;;;9.70;99.90;;;;;;5020113;28;20554;-89
2023/12/29 02:50:42;;;;;;;22.95;2.78;;;9.70;99.90;;;;;;5025507;28;21648;-90
2023/12/29 02:53:08;;;;;;;24.25;2.97;;;9.70;99.90;;;;;;5022582;28;20071;-89
2023/12/29 02:55:34;;;;;;;25.63;3.45;;;9.70;99.90;;;;;;5015305;28;20087;-89
2023/12/29 02:58:00;;;;;;;21.92;4.00;;;9.70;99.90;;;;;;5012046;28;20056;-89
2023/12/29 03:00:25;;;;;;;25.45;3.90;;;9.60;99.90;;;;;;5013301;28;20044;-91
2023/12/29 03:02:51;;;;;;;22.30;3.00;;;9.70;99.90;;;;;;5013160;28;20022;-88
2023/12/29 03:05:17;;;;;;;17.25;2.75;;;9.70;99.90;;;;;;5012141;28;20577;-89
2023/12/29 03:07:42;;;;;;;20.67;3.03;;;9.80;99.90;;;;;;5012108;28;20026;-90
2023/12/29 03:10:08;;;;;;;23.27;3.00;;;9.80;99.90;;;;;;5016288;28;20538;-88
2023/12/29 03:12:34;;;;;;;19.75;3.40;;;9.70;99.90;;;;;;5018666;28;20784;-91
2023/12/29 03:15:00;;;;;;;26.63;3.40;;;9.70;99.90;;;;;;5031433;28;20030;-89
2023/12/29 03:17:26;;;;;;;22.05;3.17;;;9.80;99.90;;;;;;5021706;28;20693;-89
2023/12/29 03:19:52;;;;;;;18.13;3.10;;;9.80;99.90;;;;;;5016659;28;20489;-88
2023/12/29 03:22:18;;;;;;;24.40;3.47;;;9.80;99.90;;;;;;5018580;28;20479;-87
2023/12/29 03:24:44;;;;;;;21.73;3.05;;;9.90;99.90;;;;;;5021332;28;20039;-90
2023/12/29 03:27:10;;;;;;;20.15;3.95;;;9.90;99.90;;;;;;5017002;28;20037;-88
2023/12/29 03:29:36;;;;;;;14.98;2.58;;;9.90;99.90;;;;;;5014748;28;20655;-89
2023/12/29 03:32:02;;;;;;;17.13;2.45;;;10.00;99.90;;;;;;5019338;28;20029;-89
2023/12/29 03:34:28;;;;;;;27.10;4.97;;;9.90;99.90;;;;;;5014923;28;20037;-90
2023/12/29 03:36:54;;;;;;;14.50;2.63;;;10.00;99.90;;;;;;5019515;28;20524;-91
2023/12/29 03:39:19;;;;;;;13.82;2.55;;;10.10;99.90;;;;;;5021134;28;20030;-93
2023/12/29 03:41:45;;;;;;;21.58;2.75;;;10.10;99.90;;;;;;5026692;28;21422;-91
2023/12/29 03:44:11;;;;;;;18.83;2.92;;;10.00;99.90;;;;;;5026774;28;20029;-91
2023/12/29 03:46:36;;;;;;;21.98;2.95;;;10.00;99.90;;;;;;5023403;28;20041;-88
2023/12/29 03:49:02;;;;;;;21.33;2.88;;;10.10;99.90;;;;;;5020113;28;20041;-91
2023/12/29 03:51:32;;;;;;;16.38;2.17;;;10.10;99.90;;;;;;5023296;28;20033;-90
2023/12/29 03:53:58;;;;;;;17.95;2.95;;;10.10;99.90;;;;;;5022500;28;20061;-88
2023/12/29 03:58:49;;;;;;;22.85;3.35;;;10.20;99.90;;;;;;5016246;28;20040;-90
2023/12/29 03:59:26;;;;;;;18.60;2.33;;;10.10;99.90;;;;;;4991499;28;20033;-90
2023/12/29 04:01:55;;;;;;;23.50;2.55;;;10.20;99.90;;;;;;5020137;28;20089;-88
2023/12/29 04:04:21;;;;;;;25.05;3.92;;;10.20;99.90;;;;;;5016364;28;20030;-91
2023/12/29 04:06:47;;;;;;;17.15;2.28;;;10.20;99.90;;;;;;5023550;28;20047;-91
2023/12/29 04:09:12;;;;;;;16.63;2.78;;;10.20;99.90;;;;;;5017600;28;20014;-92
2023/12/29 04:11:38;;;;;;;15.70;2.17;;;10.20;99.90;;;;;;5033417;28;20018;-91
2023/12/29 04:14:04;;;;;;;20.60;2.55;;;10.20;99.90;;;;;;5021287;28;21378;-90
2023/12/29 04:16:29;;;;;;;20.85;2.22;;;10.30;99.90;;;;;;5015184;28;20060;-91
2023/12/29 04:18:55;;;;;;;22.05;2.67;;;10.30;99.90;;;;;;5021338;28;20112;-89
2023/12/29 04:21:20;;;;;;;23.10;3.42;;;10.30;99.90;;;;;;5020621;28;20041;-90
2023/12/29 04:24:31;;;;;;;17.27;2.60;;;10.30;99.90;;;;;;5022036;28;20033;-91
2023/12/29 04:26:56;;;;;;;17.98;2.00;;;10.30;99.90;;;;;;4999435;28;20038;-91
2023/12/29 04:29:22;;;;;;;14.15;2.20;;;10.30;99.90;;;;;;5026229;28;20739;-91
2023/12/29 04:31:48;;;;;;;21.58;3.00;;;10.30;99.90;;;;;;5016110;28;20041;-92
2023/12/29 04:34:13;;;;;;;12.60;1.88;;;10.30;99.90;;;;;;5026091;28;20505;-90
2023/12/29 04:36:39;;;;;;;21.00;2.47;;;10.30;99.90;;;;;;5021587;28;20399;-88
2023/12/29 04:39:04;;;;;;;15.70;1.90;;;10.30;99.90;;;;;;5032955;28;20029;-89
2023/12/29 04:41:30;;;;;;;15.43;2.30;;;10.30;99.90;;;;;;5022749;28;20041;-90
2023/12/29 04:43:56;;;;;;;14.45;2.40;;;10.40;99.90;;;;;;5031278;28;20044;-90
2023/12/29 04:46:21;;;;;;;24.70;2.88;;;10.30;99.90;;;;;;5014185;28;20025;-89
2023/12/29 04:48:47;;;;;;;22.63;2.35;;;10.30;99.90;;;;;;5017703;28;20032;-88
2023/12/29 04:51:15;;;;;;;16.90;2.15;;;10.30;99.90;;;;;;5020790;28;20033;-89
2023/12/29 04:53:41;;;;;;;18.35;2.88;;;10.30;99.90;;;;;;5024965;28;20030;-89
2023/12/29 04:56:07;;;;;;;13.57;2.78;;;10.20;99.90;;;;;;5020919;28;20033;-90
2023/12/29 04:58:32;;;;;;;18.10;2.17;;;10.10;99.90;;;;;;5021181;28;20040;-90
2023/12/29 05:00:59;;;;;;;12.43;2.33;;;10.10;99.90;;;;;;5013481;28;20390;-90
2023/12/29 05:03:24;;;;;;;17.35;2.60;;;10.20;99.90;;;;;;5018263;28;20026;-91
2023/12/29 05:05:50;;;;;;;13.38;1.85;;;10.20;99.90;;;;;;5024678;28;21134;-92
2023/12/29 05:08:16;;;;;;;16.17;2.20;;;10.20;99.90;;;;;;5023047;28;20516;-92
2023/12/29 05:10:41;;;;;;;28.98;3.85;;;10.30;99.90;;;;;;5020584;28;20512;-89
2023/12/29 05:13:07;;;;;;;17.40;2.00;;;10.30;99.90;;;;;;5019060;28;20048;-90
2023/12/29 05:15:33;;;;;;;12.60;1.70;;;10.30;99.90;;;;;;5020656;28;20041;-90
2023/12/29 05:17:58;;;;;;;21.30;2.70;;;10.20;99.90;;;;;;5020634;28;20060;-90
2023/12/29 05:20:24;;;;;;;11.63;1.70;;;10.20;99.90;;;;;;5015466;28;20393;-92
2023/12/29 05:22:50;;;;;;;14.00;1.67;;;10.20;99.90;;;;;;5018815;28;20361;-90
2023/12/29 05:25:17;;;;;;;14.23;2.28;;;10.20;99.90;;;;;;5029488;28;20029;-91
2023/12/29 05:27:43;;;;;;;11.32;1.50;;;10.20;99.90;;;;;;5014903;28;20153;-92
2023/12/29 05:30:09;;;;;;;14.90;1.70;;;10.20;99.90;;;;;;5011746;28;20051;-91
2023/12/29 05:32:37;;;;;;;13.00;2.08;;;10.20;99.90;;;;;;5022050;28;20124;-91
2023/12/29 05:35:03;;;;;;;12.68;1.63;;;10.20;99.90;;;;;;5013063;28;20393;-92
2023/12/29 05:37:29;;;;;;;11.10;1.52;;;10.20;99.90;;;;;;5009863;28;20076;-90
2023/12/29 05:39:55;;;;;;;12.63;1.35;;;10.20;99.90;;;;;;5023244;28;20480;-92
2023/12/29 05:42:20;;;;;;;12.23;1.45;;;10.20;99.90;;;;;;5021109;28;20520;-91
2023/12/29 05:44:46;;;;;;;8.35;1.50;;;10.30;99.90;;;;;;5026556;28;20033;-91
2023/12/29 05:47:12;;;;;;;10.85;1.60;;;10.30;99.90;;;;;;5020702;28;20227;-90
2023/12/29 05:49:39;;;;;;;14.65;2.47;;;10.30;99.90;;;;;;5020747;28;20513;-90
2023/12/29 05:52:06;;;;;;;11.63;1.98;;;10.30;99.90;;;;;;5020115;28;20396;-90
2023/12/29 05:54:32;;;;;;;8.40;1.20;;;10.20;99.90;;;;;;5022498;28;20481;-92
2023/12/29 05:56:58;;;;;;;15.90;2.22;;;10.20;99.90;;;;;;5018196;28;20033;-90
2023/12/29 05:59:24;;;;;;;15.85;1.60;;;10.20;99.90;;;;;;5018264;28;20037;-91
2023/12/29 06:01:56;;;;;;;11.98;1.83;;;10.20;99.90;;;;;;5017282;28;20025;-90
2023/12/29 06:04:21;;;;;;;9.30;1.20;;;10.30;99.90;;;;;;5017060;28;20022;-89
2023/12/29 06:06:56;;;;;;;9.85;1.58;;;10.30;99.90;;;;;;5016703;28;20025;-91
2023/12/29 06:09:22;;;;;;;6.18;1.08;;;10.20;99.90;;;;;;5024609;28;20021;-92
2023/12/29 06:11:53;;;;;;;5.90;1.13;;;10.20;99.90;;;;;;5028993;28;20485;-90
2023/12/29 06:15:05;;;;;;;7.55;1.30;;;10.20;99.90;;;;;;5017951;28;20037;-91
2023/12/29 06:17:37;;;;;;;6.93;1.20;;;10.20;99.90;;;;;;5002449;28;20171;-92
2023/12/29 06:20:09;;;;;;;13.10;1.33;;;10.20;99.90;;;;;;5021823;28;20378;-91
2023/12/29 06:22:42;;;;;;;8.25;1.20;;;10.10;99.90;;;;;;5019312;28;20033;-92
2023/12/29 06:25:11;;;;;;;11.70;1.10;;;10.20;99.90;;;;;;5032139;28;20426;-90
2023/12/29 06:27:40;;;;;;;8.45;1.10;;;10.10;99.90;;;;;;5027606;28;20072;-89
2023/12/29 06:30:08;;;;;;;7.03;0.70;;;10.10;99.90;;;;;;5014313;28;20605;-89
2023/12/29 06:34:03;;;;;;;9.75;1.83;;;10.10;99.90;;;;;;5016238;28;20060;-90
2023/12/29 06:36:21;;;;;;;7.47;1.00;;;10.10;99.90;;;;;;4945016;28;20047;-90
2023/12/29 06:38:48;;;;;;;10.02;1.48;;;10.00;99.90;;;;;;4981365;28;21119;-90
2023/12/29 06:41:14;;;;;;;7.65;1.20;;;10.00;99.90;;;;;;5024754;28;20032;-90
2023/12/29 06:43:40;;;;;;;7.53;0.90;;;9.90;99.90;;;;;;5014940;28;20037;-91
2023/12/29 06:46:06;;;;;;;4.85;0.85;;;9.90;99.90;;;;;;5012935;28;20034;-91
2023/12/29 06:48:32;;;;;;;5.38;0.70;;;9.80;99.90;;;;;;5029078;28;20021;-91
2023/12/29 06:50:57;;;;;;;4.00;0.85;;;9.70;99.90;;;;;;5017112;28;20025;-90
2023/12/29 06:53:23;;;;;;;15.85;1.45;;;9.70;99.90;;;;;;5016192;28;20122;-92
2023/12/29 06:55:49;;;;;;;7.97;0.80;;;9.70;99.90;;;;;;5018435;28;20036;-88
2023/12/29 06:58:14;;;;;;;4.65;0.85;;;9.60;99.90;;;;;;5018587;28;20030;-90
2023/12/29 07:00:40;;;;;;;6.22;1.00;;;9.50;99.90;;;;;;5020678;28;20029;-88
2023/12/29 07:03:06;;;;;;;6.78;1.00;;;9.40;99.90;;;;;;5019138;28;20055;-90
2023/12/29 07:05:32;;;;;;;7.40;0.90;;;9.30;99.90;;;;;;5016440;28;20143;-91
2023/12/29 07:07:57;;;;;;;6.82;1.27;;;9.30;99.90;;;;;;5017531;28;20215;-89
2023/12/29 07:10:23;;;;;;;4.85;0.65;;;9.30;99.90;;;;;;5015263;28;20116;-89
2023/12/29 07:12:49;;;;;;;8.77;0.98;;;9.30;99.90;;;;;;5020693;28;20034;-89
2023/12/29 07:15:14;;;;;;;8.02;1.00;;;9.20;99.90;;;;;;5022979;28;20037;-90
2023/12/29 07:17:40;;;;;;;6.45;1.10;;;9.20;99.90;;;;;;5023191;28;20370;-89
2023/12/29 07:20:07;;;;;;;5.63;0.77;;;9.20;99.90;;;;;;5019716;28;20053;-88
2023/12/29 07:22:33;;;;;;;7.25;1.10;;;9.20;99.90;;;;;;5019854;28;20389;-89
2023/12/29 07:24:58;;;;;;;6.78;1.10;;;9.20;99.90;;;;;;5018777;28;20029;-88
2023/12/29 07:27:24;;;;;;;9.93;1.08;;;9.10;99.90;;;;;;5015882;28;20065;-90
2023/12/29 07:29:50;;;;;;;7.32;1.10;;;9.10;99.90;;;;;;5021270;28;20068;-88
2023/12/29 07:32:15;;;;;;;5.40;1.08;;;9.00;99.90;;;;;;5012686;28;20493;-90
2023/12/29 07:34:41;;;;;;;7.88;0.80;;;8.90;99.90;;;;;;5023119;28;20370;-91
2023/12/29 07:37:10;;;;;;;4.07;0.85;;;8.90;99.90;;;;;;5013603;28;20536;-88
2023/12/29 07:39:39;;;;;;;9.07;1.02;;;9.00;99.90;;;;;;5022713;28;20484;-89
2023/12/29 07:42:05;;;;;;;5.22;0.90;;;8.90;99.90;;;;;;5020039;28;20363;-90
2023/12/29 07:44:30;;;;;;;5.45;1.05;;;8.90;99.90;;;;;;5017775;28;20274;-89
2023/12/29 07:46:57;;;;;;;13.63;1.27;;;8.90;99.90;;;;;;5020820;28;20030;-90
2023/12/29 07:49:23;;;;;;;6.50;0.98;;;8.90;99.90;;;;;;5017042;28;20029;-87
2023/12/29 07:51:49;;;;;;;8.98;1.30;;;8.80;99.90;;;;;;5014408;28;20035;-89
2023/12/29 07:54:15;;;;;;;4.03;0.93;;;8.70;99.90;;;;;;5012626;28;20042;-88
2023/12/29 07:56:41;;;;;;;8.65;1.58;;;8.80;99.90;;;;;;5011981;28;20294;-88
2023/12/29 07:59:06;;;;;;;7.38;1.08;;;8.70;99.90;;;;;;5011703;28;20037;-90
2023/12/29 08:01:32;;;;;;;6.18;0.90;;;8.70;99.90;;;;;;5015638;28;20051;-89
2023/12/29 08:03:58;;;;;;;7.57;1.48;;;8.60;99.90;;;;;;5017263;28;20462;-91
2023/12/29 08:06:23;;;;;;;9.73;1.38;;;8.70;99.90;;;;;;5012347;28;20022;-89
2023/12/29 08:08:49;;;;;;;9.65;1.55;;;8.70;99.90;;;;;;5024328;28;20124;-89
2023/12/29 08:11:16;;;;;;;6.85;1.20;;;8.70;99.90;;;;;;5022384;28;20033;-89
2023/12/29 08:13:43;;;;;;;7.10;1.23;;;8.70;99.90;;;;;;5020919;28;20037;-89
2023/12/29 08:16:09;;;;;;;10.20;1.10;;;8.70;99.90;;;;;;5018666;28;20038;-90
2023/12/29 08:18:35;;;;;;;8.10;1.33;;;8.70;99.90;;;;;;5019606;28;20445;-87
2023/12/29 08:21:01;;;;;;;13.93;1.67;;;8.70;99.90;;;;;;5017933;28;20080;-89
2023/12/29 08:23:27;;;;;;;10.95;1.30;;;8.70;99.90;;;;;;5012287;28;20058;-91
2023/12/29 08:25:52;;;;;;;11.18;1.27;;;8.70;99.90;;;;;;5020317;28;20514;-89
2023/12/29 08:28:18;;;;;;;9.48;1.30;;;8.80;99.90;;;;;;5022903;28;20036;-89
2023/12/29 08:30:45;;;;;;;11.45;1.60;;;8.80;99.90;;;;;;5013395;28;20104;-88
2023/12/29 08:33:13;;;;;;;8.35;1.20;;;8.80;99.90;;;;;;5016951;28;20088;-89
2023/12/29 08:35:40;;;;;;;5.07;1.15;;;8.80;99.90;;;;;;5015130;28;20470;-88
2023/12/29 08:38:06;;;;;;;9.82;1.90;;;8.80;99.90;;;;;;5014139;28;20543;-89
2023/12/29 08:40:32;;;;;;;8.38;1.52;;;8.80;99.90;;;;;;5017238;28;20036;-89
2023/12/29 08:42:58;;;;;;;6.45;1.92;;;8.80;99.90;;;;;;5017036;28;20738;-89
2023/12/29 08:45:24;;;;;;;17.35;1.92;;;8.80;99.90;;;;;;5018820;28;20060;-88
2023/12/29 08:47:49;;;;;;;8.50;1.83;;;8.90;99.90;;;;;;5019722;28;20409;-90
2023/12/29 08:50:15;;;;;;;7.10;1.77;;;8.90;99.90;;;;;;5015949;28;20072;-89
2023/12/29 08:52:41;;;;;;;9.18;1.23;;;8.90;99.90;;;;;;5014684;28;20486;-89
2023/12/29 08:55:10;;;;;;;9.00;1.48;;;9.00;99.90;;;;;;5010418;28;20044;-88
2023/12/29 08:57:38;;;;;;;7.80;1.58;;;8.90;99.90;;;;;;5015803;28;20508;-90
2023/12/29 09:00:04;;;;;;;12.02;1.35;;;9.00;99.90;;;;;;5018363;28;20030;-90
2023/12/29 09:02:32;;;;;;;12.85;2.30;;;9.00;99.90;;;;;;5016774;28;20178;-90
2023/12/29 09:05:00;;;;;;;17.17;2.67;;;9.00;99.90;;;;;;5015495;28;20183;-89
2023/12/29 09:07:28;;;;;;;9.82;1.40;;;9.10;99.90;;;;;;5019705;28;20030;-89
2023/12/29 09:09:53;;;;;;;11.55;1.90;;;9.20;99.90;;;;;;5020431;28;20429;-89
2023/12/29 09:12:19;;;;;;;19.35;2.55;;;9.20;99.90;;;;;;5018299;28;20489;-90
2023/12/29 09:14:47;;;;;;;13.20;1.50;;;9.20;99.90;;;;;;5014883;28;20048;-90
2023/12/29 09:17:13;;;;;;;10.77;2.25;;;9.30;99.90;;;;;;5015055;28;20037;-91
2023/12/29 09:19:38;;;;;;;14.05;2.90;;;9.30;99.90;;;;;;5026891;28;21146;-89
2023/12/29 09:22:04;;;;;;;15.25;2.13;;;9.40;99.90;;;;;;5021233;28;20030;-90
2023/12/29 09:24:29;;;;;;;18.80;2.85;;;9.50;99.90;;;;;;5016203;28;20353;-90
2023/12/29 09:26:55;;;;;;;11.93;1.80;;;9.50;99.90;;;;;;5014305;28;20034;-90
2023/12/29 09:29:21;;;;;;;19.13;2.17;;;9.60;99.90;;;;;;5010343;28;20174;-90
2023/12/29 09:31:46;;;;;;;15.70;2.70;;;9.70;99.90;;;;;;5011346;28;20022;-89
2023/12/29 09:34:12;;;;;;;16.15;2.10;;;9.70;99.90;;;;;;5015309;28;20554;-90
2023/12/29 09:36:38;;;;;;;16.05;2.38;;;9.80;99.90;;;;;;5021924;28;20627;-90
2023/12/29 09:39:03;;;;;;;23.98;2.95;;;9.90;99.90;;;;;;5018625;28;20108;-88
2023/12/29 09:41:33;;;;;;;14.82;1.90;;;9.90;99.90;;;;;;5022392;28;20124;-89
2023/12/29 09:44:01;;;;;;;19.40;3.00;;;10.00;99.90;;;;;;5018986;28;20022;-89
2023/12/29 09:46:31;;;;;;;15.35;2.50;;;10.10;99.90;;;;;;5010781;28;20026;-89
2023/12/29 09:49:02;;;;;;;18.63;2.10;;;10.20;99.90;;;;;;5013124;28;20120;-90
2023/12/29 09:51:29;;;;;;;18.15;2.75;;;10.20;99.90;;;;;;5011007;28;20037;-89
2023/12/29 09:53:58;;;;;;;17.27;2.55;;;10.40;99.90;;;;;;5016018;28;20036;-88
2023/12/29 09:56:36;;;;;;;17.60;2.15;;;10.50;99.90;;;;;;5022498;28;20061;-90
2023/12/29 09:59:57;;;;;;;14.18;2.30;;;10.70;99.90;;;;;;5021459;28;20049;-89
2023/12/29 10:02:23;;;;;;;21.92;3.67;;;11.10;99.90;;;;;;5017764;28;20025;-89
2023/12/29 10:04:52;;;;;;;14.77;1.85;;;11.20;99.90;;;;;;5022717;28;20029;-90
2023/12/29 10:07:25;;;;;;;13.98;1.88;;;11.30;99.90;;;;;;5020138;28;20029;-89
2023/12/29 10:09:56;;;;;;;12.95;2.17;;;11.40;99.90;;;;;;5017899;28;20010;-90
2023/12/29 10:12:24;;;;;;;16.65;2.70;;;11.40;99.90;;;;;;5026235;28;20076;-92
2023/12/29 10:15:06;;;;;;;13.10;2.05;;;11.50;99.90;;;;;;5013406;28;20030;-89
2023/12/29 10:17:59;;;;;;;11.40;1.98;;;11.40;99.90;;;;;;5011726;28;20451;-90
2023/12/29 10:20:42;;;;;;;11.13;1.70;;;11.60;99.90;;;;;;5011415;28;20803;-90
2023/12/29 10:23:16;;;;;;;10.73;1.50;;;11.40;99.90;;;;;;5035065;28;20071;-91
2023/12/29 10:25:42;;;;;;;15.33;1.87;;;11.20;99.90;;;;;;5020889;28;20036;-90
2023/12/29 10:28:09;;;;;;;13.93;1.95;;;11.00;99.90;;;;;;5025210;28;20109;-93
2023/12/29 10:30:36;;;;;;;12.52;2.28;;;10.90;99.90;;;;;;5017499;28;20034;-91
2023/12/29 10:33:04;;;;;;;17.00;2.90;;;10.80;99.90;;;;;;5020051;28;20079;-90
2023/12/29 10:35:30;;;;;;;14.00;2.13;;;10.70;99.90;;;;;;5017816;28;20092;-91
2023/12/29 10:38:11;;;;;;;18.90;1.90;;;10.60;99.90;;;;;;5019919;28;20042;-91
2023/12/29 10:40:37;;;;;;;13.68;1.90;;;10.50;99.90;;;;;;5014297;28;20025;-89
2023/12/29 10:43:06;;;;;;;16.02;2.00;;;10.60;99.90;;;;;;5020363;28;20028;-89
2023/12/29 10:45:32;;;;;;;10.70;1.92;;;10.60;99.90;;;;;;5020751;28;20030;-92
2023/12/29 10:48:00;;;;;;;16.05;2.67;;;10.60;99.90;;;;;;5020027;28;20088;-90
2023/12/29 10:50:27;;;;;;;17.85;2.63;;;10.60;99.90;;;;;;5008883;28;20498;-91
2023/12/29 10:53:11;;;;;;;11.70;2.08;;;10.60;99.90;;;;;;5020548;28;20253;-93
2023/12/29 10:55:36;;;;;;;11.25;2.33;;;10.50;99.90;;;;;;5017895;28;20781;-92
2023/12/29 10:58:02;;;;;;;13.25;2.08;;;10.30;99.90;;;;;;5021655;28;20041;-93
2023/12/29 11:00:32;;;;;;;17.48;2.13;;;10.30;99.90;;;;;;5017857;28;20037;-91
2023/12/29 11:02:58;;;;;;;13.52;2.13;;;10.30;99.90;;;;;;5023398;28;20115;-93
2023/12/29 11:05:26;;;;;;;10.68;1.88;;;10.30;99.90;;;;;;5017499;28;20071;-88
2023/12/29 11:07:54;;;;;;;19.52;2.40;;;10.30;99.90;;;;;;5016638;28;20117;-90
2023/12/29 11:10:21;;;;;;;21.58;2.53;;;10.30;99.90;;;;;;5018254;28;20489;-90
2023/12/29 11:12:47;;;;;;;14.73;1.85;;;10.30;99.90;;;;;;5024738;28;20159;-89
2023/12/29 11:15:14;;;;;;;9.90;1.67;;;10.30;99.90;;;;;;5020827;28;20050;-90
2023/12/29 11:17:49;;;;;;;17.08;2.60;;;10.20;99.90;;;;;;5015424;28;20552;-89
2023/12/29 11:20:16;;;;;;;15.55;1.60;;;10.10;99.90;;;;;;5021625;28;20030;-88
2023/12/29 11:22:43;;;;;;;15.05;2.15;;;10.10;99.90;;;;;;5023321;28;20069;-88
2023/12/29 11:25:09;;;;;;;12.20;1.70;;;10.10;99.90;;;;;;5018068;28;20567;-90
2023/12/29 11:27:35;;;;;;;10.25;1.52;;;10.10;99.90;;;;;;5020277;28;20037;-92
2023/12/29 11:30:03;;;;;;;15.20;1.90;;;10.20;99.90;;;;;;5017205;28;20033;-88
2023/12/29 11:32:55;;;;;;;12.85;1.60;;;10.40;99.90;;;;;;5018644;28;20034;-90
2023/12/29 11:35:42;;;;;;;10.35;2.30;;;10.40;99.90;;;;;;5016215;28;20034;-89
2023/12/29 11:38:43;;;;;;;10.40;1.77;;;10.40;99.90;;;;;;5014492;28;20133;-87
2023/12/29 11:41:19;;;;;;;13.82;2.35;;;10.30;99.90;;;;;;5017729;28;20567;-89
2023/12/29 11:43:44;;;;;;;6.95;1.30;;;10.40;99.90;;;;;;5017440;28;20117;-89
2023/12/29 11:46:45;;;;;;;9.30;1.55;;;10.40;99.90;;;;;;5016429;28;20121;-90
2023/12/29 11:49:11;;;;;;;7.35;1.73;;;10.40;99.90;;;;;;5019536;28;20025;-90
2023/12/29 11:51:43;;;;;;;13.15;2.33;;;10.50;99.90;;;;;;5013224;28;20030;-89
2023/12/29 11:54:09;;;;;;;14.43;1.85;;;10.50;99.90;;;;;;5017709;28;20030;-91
2023/12/29 11:56:38;;;;;;;17.80;2.75;;;10.40;99.90;;;;;;5020748;28;20038;-91
2023/12/29 11:59:24;;;;;;;19.30;2.35;;;10.30;99.90;;;;;;5018306;28;20081;-90
2023/12/29 12:01:51;;;;;;;9.45;1.92;;;10.30;99.90;;;;;;5018166;28;20038;-90
2023/12/29 12:04:40;;;;;;;11.30;1.70;;;10.20;99.90;;;;;;5016983;28;20087;-91
2023/12/29 12:07:08;;;;;;;15.57;3.05;;;10.30;99.90;;;;;;5016691;28;20030;-91
2023/12/29 12:09:34;;;;;;;9.02;1.45;;;10.20;99.90;;;;;;5018772;28;20030;-91
2023/12/29 12:12:03;;;;;;;17.15;2.13;;;10.20;99.90;;;;;;5024408;28;20086;-90
2023/12/29 12:14:50;;;;;;;16.77;3.10;;;10.20;99.90;;;;;;5028590;28;20513;-91
2023/12/29 12:17:33;;;;;;;14.82;2.17;;;10.20;99.90;;;;;;5024428;28;20051;-91
2023/12/29 12:20:08;;;;;;;17.98;3.28;;;10.10;99.90;;;;;;5024289;28;20029;-90
2023/12/29 12:22:35;;;;;;;19.52;2.72;;;10.20;99.90;;;;;;5028327;28;20435;-90
2023/12/29 12:25:03;;;;;;;11.02;2.42;;;10.20;99.90;;;;;;5021258;28;20064;-91
2023/12/29 12:27:31;;;;;;;19.67;3.38;;;10.30;99.90;;;;;;5018846;28;20108;-90
2023/12/29 12:29:59;;;;;;;12.60;2.20;;;10.40;99.90;;;;;;5022722;28;20120;-89
2023/12/29 12:32:26;;;;;;;12.82;2.03;;;10.40;99.90;;;;;;5013255;28;20655;-91
2023/12/29 12:34:52;;;;;;;12.57;2.00;;;10.50;99.90;;;;;;5019568;28;20138;-90
2023/12/29 12:37:21;;;;;;;11.52;1.40;;;10.80;99.90;;;;;;5016268;28;20076;-91
2023/12/29 12:39:47;;;;;;;11.02;2.05;;;11.50;99.90;;;;;;5015877;28;20509;-89
2023/12/29 12:42:13;;;;;;;13.00;1.40;;;12.50;99.90;;;;;;5011983;28;20212;-90
2023/12/29 12:44:41;;;;;;;7.45;1.30;;;13.40;99.90;;;;;;5016203;28;20032;-91
2023/12/29 12:47:16;;;;;;;5.28;1.30;;;14.00;99.90;;;;;;5013753;28;20509;-89
2023/12/29 12:49:45;;;;;;;7.22;1.30;;;14.10;99.90;;;;;;5024437;28;20105;-90
2023/12/29 12:52:18;;;;;;;8.77;1.30;;;13.10;99.90;;;;;;5007787;28;20050;-89